Main page
METAR-TAF:

METAR-TAF

Airports :

Oslo Airport. Gardermoen

Oslo, Norway

latitude: 60-12N, longitude: 011-05E, elevation: 208 m

Current weather observation

The report was made 38 minutes ago, at 07:20 UTC
Wind 5 kt from the South/Southeast
Temperature -1°C
Humidity 100%
Pressure 993 hPa
Visibility 10 km or more
Few clouds at a height of 200 ft
Broken clouds at a height of 600 ft

METAR: ENGM 160720Z 16005KT 9999 FEW002 BKN006 M01/M01 Q0993 TEMPO BKN008

Time: 08:58 (07:58 UTC)

Forecast

Forecast valid from 16 at 06 UTC to 17 at 06 UTC
Wind 5 kt from the South
Visibility 10 km or more
Few clouds at a height of 200 ft
Overcast at a height of 500 ft
Becoming
from 16 at 08 UTC to 16 at 10 UTC
Broken clouds at a height of 3000 ft
Probability 30%
from 16 at 12 UTC to 17 at 06 UTC
Visibility: 0800 m
at a height of 200 ft
freezing fog

TAF: ENGM 1606/1706 18005KT 9999 FEW002 OVC005 BECMG 1608/1610 BKN030 PROB30 1612/1706 0800 FZFG VV002

Weather observations and forecasts of more than 4000 airports (METAR and TAF reports).

The available stations are represented by yellow and red dots on the map.

Hover mouse over dot to see the name of the station.

Then click to see weather observations and forecasts.

To change the map : click on the green buttons with a black cross to zoom in, on the green button with a dash to zoom out, or on the green arrows for adjacent maps.


METAR-TAF: